sensor_id;sensor_type;location;lat;lon;timestamp;P1;durP1;ratioP1;P2;durP2;ratioP2
17570;SDS011;8903;52.220;20.978;2023-03-24T00:00:19;13.97;;;10.50;;
17570;SDS011;8903;52.220;20.978;2023-03-24T00:02:49;17.70;;;9.63;;
17570;SDS011;8903;52.220;20.978;2023-03-24T00:05:17;10.93;;;8.60;;
17570;SDS011;8903;52.220;20.978;2023-03-24T00:07:45;11.20;;;8.00;;
17570;SDS011;8903;52.220;20.978;2023-03-24T00:10:14;9.77;;;8.20;;
17570;SDS011;8903;52.220;20.978;2023-03-24T00:12:43;10.07;;;7.57;;
17570;SDS011;8903;52.220;20.978;2023-03-24T00:15:12;7.60;;;6.90;;
17570;SDS011;8903;52.220;20.978;2023-03-24T00:17:41;8.70;;;6.47;;
17570;SDS011;8903;52.220;20.978;2023-03-24T00:20:11;10.03;;;6.90;;
17570;SDS011;8903;52.220;20.978;2023-03-24T00:22:40;8.87;;;6.50;;
17570;SDS011;8903;52.220;20.978;2023-03-24T00:25:08;9.60;;;7.63;;
17570;SDS011;8903;52.220;20.978;2023-03-24T00:27:36;8.53;;;6.43;;
17570;SDS011;8903;52.220;20.978;2023-03-24T00:30:04;9.43;;;6.27;;
17570;SDS011;8903;52.220;20.978;2023-03-24T00:32:32;8.77;;;6.70;;
17570;SDS011;8903;52.220;20.978;2023-03-24T00:35:03;8.03;;;6.37;;
17570;SDS011;8903;52.220;20.978;2023-03-24T00:37:34;8.33;;;7.17;;
17570;SDS011;8903;52.220;20.978;2023-03-24T00:40:02;8.07;;;6.90;;
17570;SDS011;8903;52.220;20.978;2023-03-24T00:42:31;8.40;;;7.47;;
17570;SDS011;8903;52.220;20.978;2023-03-24T00:44:59;12.40;;;7.20;;
17570;SDS011;8903;52.220;20.978;2023-03-24T00:47:27;10.97;;;7.00;;
17570;SDS011;8903;52.220;20.978;2023-03-24T00:49:55;8.07;;;7.27;;
17570;SDS011;8903;52.220;20.978;2023-03-24T00:52:22;9.80;;;7.10;;
17570;SDS011;8903;52.220;20.978;2023-03-24T00:54:52;13.30;;;6.97;;
17570;SDS011;8903;52.220;20.978;2023-03-24T00:57:22;9.70;;;7.67;;
17570;SDS011;8903;52.220;20.978;2023-03-24T00:59:50;9.10;;;7.27;;
17570;SDS011;8903;52.220;20.978;2023-03-24T01:02:21;7.13;;;6.43;;
17570;SDS011;8903;52.220;20.978;2023-03-24T01:04:51;8.23;;;7.13;;
17570;SDS011;8903;52.220;20.978;2023-03-24T01:07:19;7.17;;;6.47;;
17570;SDS011;8903;52.220;20.978;2023-03-24T01:09:47;9.70;;;7.37;;
17570;SDS011;8903;52.220;20.978;2023-03-24T01:12:22;7.87;;;6.97;;
17570;SDS011;8903;52.220;20.978;2023-03-24T01:14:50;11.27;;;7.47;;
17570;SDS011;8903;52.220;20.978;2023-03-24T01:17:18;8.90;;;6.57;;
17570;SDS011;8903;52.220;20.978;2023-03-24T01:19:46;11.40;;;7.00;;
17570;SDS011;8903;52.220;20.978;2023-03-24T01:22:13;8.90;;;6.73;;
17570;SDS011;8903;52.220;20.978;2023-03-24T01:24:41;15.23;;;8.60;;
17570;SDS011;8903;52.220;20.978;2023-03-24T01:27:09;9.00;;;7.23;;
17570;SDS011;8903;52.220;20.978;2023-03-24T01:29:37;11.97;;;8.03;;
17570;SDS011;8903;52.220;20.978;2023-03-24T01:32:04;7.80;;;6.47;;
17570;SDS011;8903;52.220;20.978;2023-03-24T01:34:31;9.00;;;7.20;;
17570;SDS011;8903;52.220;20.978;2023-03-24T01:36:59;10.83;;;8.10;;
17570;SDS011;8903;52.220;20.978;2023-03-24T01:39:26;10.57;;;6.93;;
17570;SDS011;8903;52.220;20.978;2023-03-24T01:41:55;10.53;;;6.70;;
17570;SDS011;8903;52.220;20.978;2023-03-24T01:44:23;8.57;;;6.83;;
17570;SDS011;8903;52.220;20.978;2023-03-24T01:46:57;14.43;;;7.27;;
17570;SDS011;8903;52.220;20.978;2023-03-24T01:49:26;9.73;;;6.80;;
17570;SDS011;8903;52.220;20.978;2023-03-24T01:51:58;10.80;;;6.43;;
17570;SDS011;8903;52.220;20.978;2023-03-24T01:54:27;8.07;;;6.80;;
17570;SDS011;8903;52.220;20.978;2023-03-24T01:57:00;11.63;;;7.90;;
17570;SDS011;8903;52.220;20.978;2023-03-24T01:59:33;8.77;;;6.90;;
17570;SDS011;8903;52.220;20.978;2023-03-24T02:02:11;14.67;;;7.13;;
17570;SDS011;8903;52.220;20.978;2023-03-24T02:04:45;7.70;;;6.13;;
17570;SDS011;8903;52.220;20.978;2023-03-24T02:07:22;10.23;;;6.80;;
17570;SDS011;8903;52.220;20.978;2023-03-24T02:09:55;10.47;;;6.57;;
17570;SDS011;8903;52.220;20.978;2023-03-24T02:12:22;9.63;;;6.70;;
17570;SDS011;8903;52.220;20.978;2023-03-24T02:14:51;12.00;;;7.33;;
17570;SDS011;8903;52.220;20.978;2023-03-24T02:17:26;9.87;;;6.60;;
17570;SDS011;8903;52.220;20.978;2023-03-24T02:20:10;9.47;;;7.23;;
17570;SDS011;8903;52.220;20.978;2023-03-24T02:28:41;8.90;;;6.73;;
17570;SDS011;8903;52.220;20.978;2023-03-24T02:31:20;7.57;;;6.03;;
17570;SDS011;8903;52.220;20.978;2023-03-24T02:34:24;9.50;;;6.77;;
17570;SDS011;8903;52.220;20.978;2023-03-24T02:40:22;10.23;;;6.23;;
17570;SDS011;8903;52.220;20.978;2023-03-24T02:42:59;10.90;;;6.40;;
17570;SDS011;8903;52.220;20.978;2023-03-24T02:45:34;11.93;;;6.73;;
17570;SDS011;8903;52.220;20.978;2023-03-24T02:48:09;8.93;;;7.13;;
17570;SDS011;8903;52.220;20.978;2023-03-24T02:50:48;7.43;;;5.90;;
17570;SDS011;8903;52.220;20.978;2023-03-24T02:53:21;8.20;;;5.90;;
17570;SDS011;8903;52.220;20.978;2023-03-24T02:56:18;9.77;;;7.60;;
17570;SDS011;8903;52.220;20.978;2023-03-24T02:58:53;8.20;;;6.20;;
17570;SDS011;8903;52.220;20.978;2023-03-24T03:01:24;8.10;;;6.47;;
17570;SDS011;8903;52.220;20.978;2023-03-24T03:04:20;9.97;;;7.37;;
17570;SDS011;8903;52.220;20.978;2023-03-24T03:06:52;9.47;;;6.10;;
17570;SDS011;8903;52.220;20.978;2023-03-24T03:09:23;10.20;;;6.63;;
17570;SDS011;8903;52.220;20.978;2023-03-24T03:11:55;6.13;;;5.53;;
17570;SDS011;8903;52.220;20.978;2023-03-24T03:14:26;8.67;;;6.67;;
17570;SDS011;8903;52.220;20.978;2023-03-24T03:16:57;8.50;;;6.60;;
17570;SDS011;8903;52.220;20.978;2023-03-24T03:19:29;7.40;;;5.70;;
17570;SDS011;8903;52.220;20.978;2023-03-24T03:21:58;6.73;;;6.03;;
17570;SDS011;8903;52.220;20.978;2023-03-24T03:24:29;7.97;;;6.43;;
17570;SDS011;8903;52.220;20.978;2023-03-24T03:27:03;7.30;;;5.30;;
17570;SDS011;8903;52.220;20.978;2023-03-24T03:29:34;7.63;;;5.80;;
17570;SDS011;8903;52.220;20.978;2023-03-24T03:32:05;8.60;;;6.77;;
17570;SDS011;8903;52.220;20.978;2023-03-24T03:34:36;7.17;;;6.00;;
17570;SDS011;8903;52.220;20.978;2023-03-24T03:37:08;8.83;;;6.20;;
17570;SDS011;8903;52.220;20.978;2023-03-24T03:39:44;9.93;;;7.13;;
17570;SDS011;8903;52.220;20.978;2023-03-24T03:42:16;10.40;;;5.97;;
17570;SDS011;8903;52.220;20.978;2023-03-24T03:44:44;6.90;;;5.87;;
17570;SDS011;8903;52.220;20.978;2023-03-24T03:47:12;10.80;;;7.57;;
17570;SDS011;8903;52.220;20.978;2023-03-24T03:49:42;12.40;;;7.43;;
17570;SDS011;8903;52.220;20.978;2023-03-24T03:52:10;9.77;;;7.23;;
17570;SDS011;8903;52.220;20.978;2023-03-24T03:54:38;7.60;;;6.27;;
17570;SDS011;8903;52.220;20.978;2023-03-24T03:57:07;9.87;;;6.53;;
17570;SDS011;8903;52.220;20.978;2023-03-24T03:59:48;11.37;;;7.30;;
17570;SDS011;8903;52.220;20.978;2023-03-24T04:02:21;11.37;;;8.03;;
17570;SDS011;8903;52.220;20.978;2023-03-24T04:08:10;13.63;;;6.90;;
17570;SDS011;8903;52.220;20.978;2023-03-24T04:17:58;8.33;;;6.80;;
17570;SDS011;8903;52.220;20.978;2023-03-24T04:21:11;8.80;;;7.10;;
17570;SDS011;8903;52.220;20.978;2023-03-24T04:23:54;9.00;;;7.00;;
17570;SDS011;8903;52.220;20.978;2023-03-24T04:26:36;9.27;;;6.97;;
17570;SDS011;8903;52.220;20.978;2023-03-24T04:29:11;9.73;;;7.40;;
17570;SDS011;8903;52.220;20.978;2023-03-24T04:31:43;8.97;;;7.10;;
17570;SDS011;8903;52.220;20.978;2023-03-24T04:34:20;9.40;;;7.23;;
17570;SDS011;8903;52.220;20.978;2023-03-24T04:36:53;8.63;;;7.30;;
17570;SDS011;8903;52.220;20.978;2023-03-24T04:39:50;14.53;;;7.87;;
17570;SDS011;8903;52.220;20.978;2023-03-24T04:42:24;10.87;;;7.27;;
17570;SDS011;8903;52.220;20.978;2023-03-24T04:44:56;9.80;;;7.37;;
17570;SDS011;8903;52.220;20.978;2023-03-24T04:47:41;13.60;;;8.30;;
17570;SDS011;8903;52.220;20.978;2023-03-24T04:50:30;14.90;;;7.90;;
17570;SDS011;8903;52.220;20.978;2023-03-24T04:53:01;11.83;;;7.90;;
17570;SDS011;8903;52.220;20.978;2023-03-24T04:55:36;14.23;;;7.83;;
17570;SDS011;8903;52.220;20.978;2023-03-24T04:58:35;8.70;;;7.27;;
17570;SDS011;8903;52.220;20.978;2023-03-24T05:01:02;13.43;;;8.17;;
17570;SDS011;8903;52.220;20.978;2023-03-24T05:03:30;9.33;;;7.77;;
17570;SDS011;8903;52.220;20.978;2023-03-24T05:06:03;10.97;;;7.57;;
17570;SDS011;8903;52.220;20.978;2023-03-24T05:08:32;12.23;;;7.60;;
17570;SDS011;8903;52.220;20.978;2023-03-24T05:10:59;17.73;;;8.10;;
17570;SDS011;8903;52.220;20.978;2023-03-24T05:13:27;12.20;;;6.93;;
17570;SDS011;8903;52.220;20.978;2023-03-24T05:15:59;14.23;;;8.07;;
17570;SDS011;8903;52.220;20.978;2023-03-24T05:18:38;9.87;;;8.53;;
17570;SDS011;8903;52.220;20.978;2023-03-24T05:21:07;11.80;;;8.07;;
17570;SDS011;8903;52.220;20.978;2023-03-24T05:23:35;14.03;;;8.53;;
17570;SDS011;8903;52.220;20.978;2023-03-24T05:26:02;10.27;;;7.43;;
17570;SDS011;8903;52.220;20.978;2023-03-24T05:28:35;12.43;;;8.73;;
17570;SDS011;8903;52.220;20.978;2023-03-24T05:31:03;13.30;;;9.80;;
17570;SDS011;8903;52.220;20.978;2023-03-24T05:33:47;14.07;;;9.50;;
17570;SDS011;8903;52.220;20.978;2023-03-24T05:36:18;16.10;;;10.30;;
17570;SDS011;8903;52.220;20.978;2023-03-24T05:38:52;12.80;;;9.70;;
17570;SDS011;8903;52.220;20.978;2023-03-24T05:41:23;14.20;;;10.37;;
17570;SDS011;8903;52.220;20.978;2023-03-24T05:43:50;16.37;;;10.90;;
17570;SDS011;8903;52.220;20.978;2023-03-24T05:46:18;13.37;;;11.43;;
17570;SDS011;8903;52.220;20.978;2023-03-24T05:48:47;15.83;;;11.77;;
17570;SDS011;8903;52.220;20.978;2023-03-24T05:51:19;13.93;;;11.17;;
17570;SDS011;8903;52.220;20.978;2023-03-24T05:53:53;14.70;;;10.20;;
17570;SDS011;8903;52.220;20.978;2023-03-24T05:56:29;17.03;;;10.77;;
17570;SDS011;8903;52.220;20.978;2023-03-24T05:59:08;15.90;;;12.80;;
17570;SDS011;8903;52.220;20.978;2023-03-24T06:02:02;20.07;;;10.90;;
17570;SDS011;8903;52.220;20.978;2023-03-24T06:04:55;16.53;;;11.43;;
17570;SDS011;8903;52.220;20.978;2023-03-24T06:07:25;14.17;;;11.47;;
17570;SDS011;8903;52.220;20.978;2023-03-24T06:09:55;14.27;;;11.03;;
17570;SDS011;8903;52.220;20.978;2023-03-24T06:12:29;19.67;;;14.50;;
17570;SDS011;8903;52.220;20.978;2023-03-24T06:15:00;17.43;;;11.90;;
17570;SDS011;8903;52.220;20.978;2023-03-24T06:17:28;16.80;;;11.00;;
17570;SDS011;8903;52.220;20.978;2023-03-24T06:20:01;13.10;;;10.37;;
17570;SDS011;8903;52.220;20.978;2023-03-24T06:22:43;15.70;;;11.70;;
17570;SDS011;8903;52.220;20.978;2023-03-24T06:25:14;17.17;;;11.73;;
17570;SDS011;8903;52.220;20.978;2023-03-24T06:27:54;16.20;;;11.80;;
17570;SDS011;8903;52.220;20.978;2023-03-24T06:30:28;16.93;;;11.27;;
17570;SDS011;8903;52.220;20.978;2023-03-24T06:32:55;17.23;;;12.57;;
17570;SDS011;8903;52.220;20.978;2023-03-24T06:35:22;13.20;;;11.00;;
17570;SDS011;8903;52.220;20.978;2023-03-24T06:37:58;19.90;;;11.20;;
17570;SDS011;8903;52.220;20.978;2023-03-24T06:40:25;18.00;;;12.40;;
17570;SDS011;8903;52.220;20.978;2023-03-24T06:42:56;17.50;;;12.53;;
17570;SDS011;8903;52.220;20.978;2023-03-24T06:45:23;20.17;;;11.27;;
17570;SDS011;8903;52.220;20.978;2023-03-24T06:47:51;19.43;;;12.93;;
17570;SDS011;8903;52.220;20.978;2023-03-24T06:50:20;16.23;;;12.60;;
17570;SDS011;8903;52.220;20.978;2023-03-24T06:52:51;14.17;;;10.40;;
17570;SDS011;8903;52.220;20.978;2023-03-24T06:55:21;17.13;;;12.23;;
17570;SDS011;8903;52.220;20.978;2023-03-24T06:57:51;17.40;;;11.57;;
17570;SDS011;8903;52.220;20.978;2023-03-24T07:00:33;13.77;;;10.57;;
17570;SDS011;8903;52.220;20.978;2023-03-24T07:03:23;19.97;;;13.00;;
17570;SDS011;8903;52.220;20.978;2023-03-24T07:06:20;17.70;;;12.37;;
17570;SDS011;8903;52.220;20.978;2023-03-24T07:08:51;18.40;;;12.03;;
17570;SDS011;8903;52.220;20.978;2023-03-24T07:11:23;36.30;;;12.30;;
17570;SDS011;8903;52.220;20.978;2023-03-24T07:13:53;15.30;;;12.50;;
17570;SDS011;8903;52.220;20.978;2023-03-24T07:16:20;20.33;;;10.77;;
17570;SDS011;8903;52.220;20.978;2023-03-24T07:18:56;27.73;;;11.50;;
17570;SDS011;8903;52.220;20.978;2023-03-24T07:21:25;15.30;;;10.57;;
17570;SDS011;8903;52.220;20.978;2023-03-24T07:23:52;12.50;;;9.20;;
17570;SDS011;8903;52.220;20.978;2023-03-24T07:26:26;16.47;;;10.60;;
17570;SDS011;8903;52.220;20.978;2023-03-24T07:28:57;13.47;;;9.43;;
17570;SDS011;8903;52.220;20.978;2023-03-24T07:31:32;14.10;;;10.10;;
17570;SDS011;8903;52.220;20.978;2023-03-24T07:34:04;16.27;;;9.40;;
17570;SDS011;8903;52.220;20.978;2023-03-24T07:36:34;13.20;;;8.63;;
17570;SDS011;8903;52.220;20.978;2023-03-24T07:39:03;18.73;;;11.70;;
17570;SDS011;8903;52.220;20.978;2023-03-24T07:41:34;13.10;;;9.70;;
17570;SDS011;8903;52.220;20.978;2023-03-24T07:44:09;17.70;;;10.77;;
17570;SDS011;8903;52.220;20.978;2023-03-24T07:46:40;12.40;;;8.33;;
17570;SDS011;8903;52.220;20.978;2023-03-24T07:49:07;14.57;;;8.77;;
17570;SDS011;8903;52.220;20.978;2023-03-24T07:51:35;9.67;;;8.00;;
17570;SDS011;8903;52.220;20.978;2023-03-24T07:54:28;10.23;;;8.17;;
17570;SDS011;8903;52.220;20.978;2023-03-24T07:56:57;9.27;;;8.10;;
17570;SDS011;8903;52.220;20.978;2023-03-24T07:59:24;15.63;;;9.80;;
17570;SDS011;8903;52.220;20.978;2023-03-24T08:02:08;12.57;;;8.50;;
17570;SDS011;8903;52.220;20.978;2023-03-24T08:05:20;12.23;;;9.77;;
17570;SDS011;8903;52.220;20.978;2023-03-24T08:08:07;15.00;;;9.57;;
17570;SDS011;8903;52.220;20.978;2023-03-24T08:10:34;12.90;;;9.87;;
17570;SDS011;8903;52.220;20.978;2023-03-24T08:13:03;18.00;;;10.77;;
17570;SDS011;8903;52.220;20.978;2023-03-24T08:15:30;12.33;;;10.27;;
17570;SDS011;8903;52.220;20.978;2023-03-24T08:17:58;14.73;;;10.93;;
17570;SDS011;8903;52.220;20.978;2023-03-24T08:20:25;14.47;;;9.90;;
17570;SDS011;8903;52.220;20.978;2023-03-24T08:22:53;16.70;;;10.70;;
17570;SDS011;8903;52.220;20.978;2023-03-24T08:25:21;14.87;;;10.83;;
17570;SDS011;8903;52.220;20.978;2023-03-24T08:27:50;12.87;;;10.53;;
17570;SDS011;8903;52.220;20.978;2023-03-24T08:30:19;17.30;;;10.60;;
17570;SDS011;8903;52.220;20.978;2023-03-24T08:32:48;14.53;;;10.13;;
17570;SDS011;8903;52.220;20.978;2023-03-24T08:35:17;17.40;;;11.40;;
17570;SDS011;8903;52.220;20.978;2023-03-24T08:37:47;17.40;;;11.43;;
17570;SDS011;8903;52.220;20.978;2023-03-24T08:40:14;12.60;;;10.70;;
17570;SDS011;8903;52.220;20.978;2023-03-24T08:42:46;15.37;;;10.87;;
17570;SDS011;8903;52.220;20.978;2023-03-24T08:45:14;16.50;;;10.23;;
17570;SDS011;8903;52.220;20.978;2023-03-24T08:47:46;15.60;;;10.73;;
17570;SDS011;8903;52.220;20.978;2023-03-24T08:50:14;19.30;;;9.90;;
17570;SDS011;8903;52.220;20.978;2023-03-24T08:52:41;16.57;;;11.90;;
17570;SDS011;8903;52.220;20.978;2023-03-24T08:55:12;20.73;;;9.90;;
17570;SDS011;8903;52.220;20.978;2023-03-24T08:57:39;14.93;;;10.10;;
17570;SDS011;8903;52.220;20.978;2023-03-24T09:00:07;11.37;;;10.10;;
17570;SDS011;8903;52.220;20.978;2023-03-24T09:02:38;14.33;;;10.13;;
17570;SDS011;8903;52.220;20.978;2023-03-24T09:05:07;16.80;;;10.40;;
17570;SDS011;8903;52.220;20.978;2023-03-24T09:07:35;11.90;;;9.13;;
17570;SDS011;8903;52.220;20.978;2023-03-24T09:10:03;11.20;;;9.20;;
17570;SDS011;8903;52.220;20.978;2023-03-24T09:12:31;13.00;;;8.97;;
17570;SDS011;8903;52.220;20.978;2023-03-24T09:14:58;13.87;;;9.10;;
17570;SDS011;8903;52.220;20.978;2023-03-24T09:17:26;16.37;;;8.90;;
17570;SDS011;8903;52.220;20.978;2023-03-24T09:19:53;10.60;;;8.93;;
17570;SDS011;8903;52.220;20.978;2023-03-24T09:22:21;12.17;;;9.37;;
17570;SDS011;8903;52.220;20.978;2023-03-24T09:24:48;12.67;;;10.00;;
17570;SDS011;8903;52.220;20.978;2023-03-24T09:27:16;10.60;;;9.50;;
17570;SDS011;8903;52.220;20.978;2023-03-24T09:29:43;10.30;;;9.17;;
17570;SDS011;8903;52.220;20.978;2023-03-24T09:32:10;11.00;;;9.37;;
17570;SDS011;8903;52.220;20.978;2023-03-24T09:34:37;13.07;;;9.00;;
17570;SDS011;8903;52.220;20.978;2023-03-24T09:37:05;11.83;;;9.03;;
17570;SDS011;8903;52.220;20.978;2023-03-24T09:39:35;14.10;;;9.30;;
17570;SDS011;8903;52.220;20.978;2023-03-24T09:42:02;8.63;;;7.67;;
17570;SDS011;8903;52.220;20.978;2023-03-24T09:44:32;11.87;;;8.67;;
17570;SDS011;8903;52.220;20.978;2023-03-24T09:47:03;9.07;;;8.17;;
17570;SDS011;8903;52.220;20.978;2023-03-24T09:49:39;12.20;;;8.60;;
17570;SDS011;8903;52.220;20.978;2023-03-24T09:52:08;15.00;;;10.10;;
17570;SDS011;8903;52.220;20.978;2023-03-24T09:54:40;9.77;;;7.80;;
17570;SDS011;8903;52.220;20.978;2023-03-24T09:57:14;16.47;;;9.50;;
17570;SDS011;8903;52.220;20.978;2023-03-24T09:59:46;12.23;;;8.40;;
17570;SDS011;8903;52.220;20.978;2023-03-24T10:02:14;13.70;;;9.00;;
17570;SDS011;8903;52.220;20.978;2023-03-24T10:04:43;11.80;;;8.80;;
17570;SDS011;8903;52.220;20.978;2023-03-24T10:07:13;11.90;;;9.40;;
17570;SDS011;8903;52.220;20.978;2023-03-24T10:09:46;10.37;;;7.90;;
17570;SDS011;8903;52.220;20.978;2023-03-24T10:12:19;9.90;;;8.27;;
17570;SDS011;8903;52.220;20.978;2023-03-24T10:15:02;8.83;;;7.77;;
17570;SDS011;8903;52.220;20.978;2023-03-24T10:17:37;10.50;;;9.00;;
17570;SDS011;8903;52.220;20.978;2023-03-24T10:20:13;13.73;;;8.43;;
17570;SDS011;8903;52.220;20.978;2023-03-24T10:22:54;9.23;;;7.83;;
17570;SDS011;8903;52.220;20.978;2023-03-24T10:25:32;10.87;;;8.00;;
17570;SDS011;8903;52.220;20.978;2023-03-24T10:28:10;10.03;;;8.10;;
17570;SDS011;8903;52.220;20.978;2023-03-24T11:04:12;11.10;;;7.83;;
17570;SDS011;8903;52.220;20.978;2023-03-24T11:06:51;11.13;;;7.53;;
17570;SDS011;8903;52.220;20.978;2023-03-24T11:50:42;11.03;;;9.63;;
17570;SDS011;8903;52.220;20.978;2023-03-24T11:53:10;11.93;;;8.27;;
17570;SDS011;8903;52.220;20.978;2023-03-24T11:55:43;7.53;;;6.70;;
17570;SDS011;8903;52.220;20.978;2023-03-24T11:58:16;12.70;;;8.17;;
17570;SDS011;8903;52.220;20.978;2023-03-24T12:00:53;12.33;;;8.67;;
17570;SDS011;8903;52.220;20.978;2023-03-24T12:06:22;9.33;;;8.33;;
17570;SDS011;8903;52.220;20.978;2023-03-24T12:09:02;9.00;;;6.70;;
17570;SDS011;8903;52.220;20.978;2023-03-24T12:11:43;12.57;;;8.00;;
17570;SDS011;8903;52.220;20.978;2023-03-24T12:14:25;14.53;;;8.07;;
17570;SDS011;8903;52.220;20.978;2023-03-24T12:17:01;11.07;;;7.40;;
17570;SDS011;8903;52.220;20.978;2023-03-24T12:19:42;12.50;;;7.30;;
17570;SDS011;8903;52.220;20.978;2023-03-24T12:22:35;15.13;;;7.40;;
17570;SDS011;8903;52.220;20.978;2023-03-24T12:25:25;10.60;;;6.30;;
17570;SDS011;8903;52.220;20.978;2023-03-24T12:28:05;7.47;;;6.00;;
17570;SDS011;8903;52.220;20.978;2023-03-24T12:30:48;9.93;;;5.67;;
17570;SDS011;8903;52.220;20.978;2023-03-24T12:33:29;10.50;;;6.03;;
17570;SDS011;8903;52.220;20.978;2023-03-24T12:36:12;12.00;;;5.37;;
17570;SDS011;8903;52.220;20.978;2023-03-24T12:39:03;6.13;;;5.57;;
17570;SDS011;8903;52.220;20.978;2023-03-24T12:41:46;6.27;;;4.90;;
17570;SDS011;8903;52.220;20.978;2023-03-24T12:44:40;14.23;;;5.70;;
17570;SDS011;8903;52.220;20.978;2023-03-24T12:47:28;9.40;;;5.17;;
17570;SDS011;8903;52.220;20.978;2023-03-24T12:50:11;15.13;;;5.77;;
17570;SDS011;8903;52.220;20.978;2023-03-24T12:52:52;15.57;;;4.93;;
17570;SDS011;8903;52.220;20.978;2023-03-24T12:55:34;8.73;;;4.37;;
17570;SDS011;8903;52.220;20.978;2023-03-24T12:58:09;6.60;;;4.70;;
17570;SDS011;8903;52.220;20.978;2023-03-24T13:00:40;5.70;;;4.13;;
17570;SDS011;8903;52.220;20.978;2023-03-24T13:03:13;8.60;;;4.87;;
17570;SDS011;8903;52.220;20.978;2023-03-24T13:05:44;25.27;;;5.90;;
17570;SDS011;8903;52.220;20.978;2023-03-24T13:08:17;4.70;;;3.77;;
17570;SDS011;8903;52.220;20.978;2023-03-24T13:10:54;9.93;;;4.07;;
17570;SDS011;8903;52.220;20.978;2023-03-24T13:13:26;7.43;;;5.10;;
17570;SDS011;8903;52.220;20.978;2023-03-24T13:15:57;6.53;;;4.00;;
17570;SDS011;8903;52.220;20.978;2023-03-24T13:18:28;4.40;;;3.60;;
17570;SDS011;8903;52.220;20.978;2023-03-24T13:20:59;4.50;;;4.10;;
17570;SDS011;8903;52.220;20.978;2023-03-24T13:26:29;3.40;;;3.10;;
17570;SDS011;8903;52.220;20.978;2023-03-24T13:29:06;7.27;;;4.50;;
17570;SDS011;8903;52.220;20.978;2023-03-24T13:31:41;6.23;;;3.43;;
17570;SDS011;8903;52.220;20.978;2023-03-24T13:34:16;7.70;;;3.40;;
17570;SDS011;8903;52.220;20.978;2023-03-24T13:36:49;8.23;;;3.33;;
17570;SDS011;8903;52.220;20.978;2023-03-24T13:39:21;6.03;;;2.90;;
17570;SDS011;8903;52.220;20.978;2023-03-24T13:41:53;6.30;;;3.50;;
17570;SDS011;8903;52.220;20.978;2023-03-24T13:44:23;5.60;;;3.10;;
17570;SDS011;8903;52.220;20.978;2023-03-24T13:47:00;5.73;;;3.13;;
17570;SDS011;8903;52.220;20.978;2023-03-24T13:49:35;2.80;;;2.47;;
17570;SDS011;8903;52.220;20.978;2023-03-24T13:52:04;2.50;;;2.30;;
17570;SDS011;8903;52.220;20.978;2023-03-24T13:54:45;5.43;;;3.30;;
17570;SDS011;8903;52.220;20.978;2023-03-24T13:57:15;6.57;;;3.27;;
17570;SDS011;8903;52.220;20.978;2023-03-24T13:59:58;2.77;;;2.47;;
17570;SDS011;8903;52.220;20.978;2023-03-24T14:02:40;5.30;;;3.10;;
17570;SDS011;8903;52.220;20.978;2023-03-24T14:05:11;2.60;;;2.40;;
17570;SDS011;8903;52.220;20.978;2023-03-24T14:08:08;4.17;;;3.10;;
17570;SDS011;8903;52.220;20.978;2023-03-24T14:10:39;3.93;;;3.07;;
17570;SDS011;8903;52.220;20.978;2023-03-24T14:16:33;4.90;;;2.83;;
17570;SDS011;8903;52.220;20.978;2023-03-24T14:19:07;4.40;;;2.83;;
17570;SDS011;8903;52.220;20.978;2023-03-24T14:21:51;4.57;;;3.10;;
17570;SDS011;8903;52.220;20.978;2023-03-24T14:24:24;4.10;;;2.60;;
17570;SDS011;8903;52.220;20.978;2023-03-24T14:26:53;5.70;;;2.80;;
17570;SDS011;8903;52.220;20.978;2023-03-24T14:29:35;3.60;;;2.50;;
17570;SDS011;8903;52.220;20.978;2023-03-24T14:32:04;3.23;;;2.93;;
17570;SDS011;8903;52.220;20.978;2023-03-24T14:34:32;8.23;;;3.37;;
17570;SDS011;8903;52.220;20.978;2023-03-24T14:37:02;3.70;;;3.20;;
17570;SDS011;8903;52.220;20.978;2023-03-24T14:39:34;7.63;;;3.33;;
17570;SDS011;8903;52.220;20.978;2023-03-24T14:45:39;3.70;;;2.83;;
17570;SDS011;8903;52.220;20.978;2023-03-24T14:48:20;5.80;;;3.37;;
17570;SDS011;8903;52.220;20.978;2023-03-24T14:50:52;3.40;;;3.10;;
17570;SDS011;8903;52.220;20.978;2023-03-24T14:53:20;6.13;;;2.73;;
17570;SDS011;8903;52.220;20.978;2023-03-24T14:55:48;3.30;;;2.83;;
17570;SDS011;8903;52.220;20.978;2023-03-24T14:58:19;2.80;;;2.60;;
17570;SDS011;8903;52.220;20.978;2023-03-24T15:00:51;7.27;;;2.97;;
17570;SDS011;8903;52.220;20.978;2023-03-24T15:03:23;5.00;;;2.30;;
17570;SDS011;8903;52.220;20.978;2023-03-24T15:06:02;3.67;;;2.20;;
17570;SDS011;8903;52.220;20.978;2023-03-24T15:08:36;5.33;;;2.67;;
17570;SDS011;8903;52.220;20.978;2023-03-24T15:11:03;3.53;;;1.97;;
17570;SDS011;8903;52.220;20.978;2023-03-24T15:13:33;3.63;;;2.57;;
17570;SDS011;8903;52.220;20.978;2023-03-24T15:16:04;3.33;;;3.03;;
17570;SDS011;8903;52.220;20.978;2023-03-24T15:18:42;3.70;;;2.43;;
17570;SDS011;8903;52.220;20.978;2023-03-24T15:21:13;5.67;;;2.67;;
17570;SDS011;8903;52.220;20.978;2023-03-24T15:23:45;4.90;;;2.67;;
17570;SDS011;8903;52.220;20.978;2023-03-24T15:26:13;3.57;;;2.63;;
17570;SDS011;8903;52.220;20.978;2023-03-24T15:28:42;7.03;;;3.40;;
17570;SDS011;8903;52.220;20.978;2023-03-24T15:31:11;3.33;;;1.87;;
17570;SDS011;8903;52.220;20.978;2023-03-24T15:33:39;3.87;;;2.60;;
17570;SDS011;8903;52.220;20.978;2023-03-24T15:36:12;2.63;;;2.40;;
17570;SDS011;8903;52.220;20.978;2023-03-24T15:38:43;3.93;;;2.40;;
17570;SDS011;8903;52.220;20.978;2023-03-24T15:41:11;4.97;;;2.50;;
17570;SDS011;8903;52.220;20.978;2023-03-24T15:43:42;3.10;;;2.40;;
17570;SDS011;8903;52.220;20.978;2023-03-24T15:46:17;4.00;;;2.80;;
17570;SDS011;8903;52.220;20.978;2023-03-24T15:48:48;3.10;;;2.80;;
17570;SDS011;8903;52.220;20.978;2023-03-24T15:51:15;3.20;;;2.90;;
17570;SDS011;8903;52.220;20.978;2023-03-24T15:53:43;3.83;;;2.83;;
17570;SDS011;8903;52.220;20.978;2023-03-24T15:56:17;3.80;;;3.50;;
17570;SDS011;8903;52.220;20.978;2023-03-24T15:58:49;5.67;;;2.97;;
17570;SDS011;8903;52.220;20.978;2023-03-24T16:01:21;5.30;;;3.10;;
17570;SDS011;8903;52.220;20.978;2023-03-24T16:03:55;4.90;;;3.47;;
17570;SDS011;8903;52.220;20.978;2023-03-24T16:06:26;4.30;;;2.93;;
17570;SDS011;8903;52.220;20.978;2023-03-24T16:08:57;4.53;;;3.53;;
17570;SDS011;8903;52.220;20.978;2023-03-24T16:11:25;3.50;;;3.00;;
17570;SDS011;8903;52.220;20.978;2023-03-24T16:13:53;6.63;;;4.07;;
17570;SDS011;8903;52.220;20.978;2023-03-24T16:16:23;3.97;;;3.50;;
17570;SDS011;8903;52.220;20.978;2023-03-24T16:18:52;5.47;;;4.20;;
17570;SDS011;8903;52.220;20.978;2023-03-24T16:21:21;3.73;;;3.43;;
17570;SDS011;8903;52.220;20.978;2023-03-24T16:23:51;6.37;;;3.40;;
17570;SDS011;8903;52.220;20.978;2023-03-24T16:26:19;4.27;;;3.67;;
17570;SDS011;8903;52.220;20.978;2023-03-24T16:28:47;7.67;;;3.90;;
17570;SDS011;8903;52.220;20.978;2023-03-24T16:31:16;10.50;;;3.97;;
17570;SDS011;8903;52.220;20.978;2023-03-24T16:33:49;8.57;;;3.93;;
17570;SDS011;8903;52.220;20.978;2023-03-24T16:36:17;5.87;;;4.60;;
17570;SDS011;8903;52.220;20.978;2023-03-24T16:38:46;7.87;;;5.20;;
17570;SDS011;8903;52.220;20.978;2023-03-24T16:41:14;6.30;;;4.63;;
17570;SDS011;8903;52.220;20.978;2023-03-24T16:43:41;4.70;;;3.90;;
17570;SDS011;8903;52.220;20.978;2023-03-24T16:46:15;5.20;;;3.87;;
17570;SDS011;8903;52.220;20.978;2023-03-24T16:48:43;7.50;;;5.03;;
17570;SDS011;8903;52.220;20.978;2023-03-24T16:51:13;16.03;;;4.73;;
17570;SDS011;8903;52.220;20.978;2023-03-24T16:53:41;5.63;;;4.77;;
17570;SDS011;8903;52.220;20.978;2023-03-24T16:56:11;7.80;;;5.10;;
17570;SDS011;8903;52.220;20.978;2023-03-24T16:58:39;5.80;;;5.20;;